Terminal Aerodrome Forecast
Issued by NWS

Home | Current Version | Previous Version | Text Only | Print | Product List | Glossary On
Versions: 1 2 3 4 5 6 7 8 9 10 11 12 13 14 15 16 17
000
FTUS43 KMQT 091736
TAFCMX
TAF
KCMX 091736Z 0918/1018 30012G19KT 2SM -SHSN OVC025
     FM092300 31010KT 1 1/2SM -SHSN OVC025
     FM101300 32008KT 2SM -SHSN OVC015=

USA.gov is the U.S. government's official web portal to all federal, state and local government web resources and services.